createdAt,value
2023-03-27T00:02:13.882Z,3.40
2023-03-27T00:04:42.460Z,3.40
2023-03-27T00:07:09.444Z,3.40
2023-03-27T00:09:37.255Z,3.30
2023-03-27T00:12:04.491Z,3.30
2023-03-27T00:14:32.113Z,3.20
2023-03-27T00:17:00.269Z,3.20
2023-03-27T00:19:27.724Z,3.10
2023-03-27T00:21:55.188Z,3.10
2023-03-27T00:24:22.845Z,3.10
2023-03-27T00:26:49.798Z,3.00
2023-03-27T00:29:18.237Z,3.00
2023-03-27T00:31:45.654Z,2.90
2023-03-27T00:34:16.312Z,2.90
2023-03-27T00:36:43.816Z,2.90
2023-03-27T00:39:11.248Z,2.90
2023-03-27T00:41:38.275Z,2.80
2023-03-27T00:44:34.472Z,2.70
2023-03-27T00:47:04.218Z,2.70
2023-03-27T00:49:35.030Z,2.70
2023-03-27T00:52:04.176Z,2.60
2023-03-27T00:54:36.065Z,2.60
2023-03-27T00:57:07.172Z,2.50
2023-03-27T00:59:39.645Z,2.50
2023-03-27T01:02:08.205Z,2.50
2023-03-27T01:04:37.409Z,2.50
2023-03-27T01:07:07.475Z,2.40
2023-03-27T01:09:34.991Z,2.40
2023-03-27T01:12:23.160Z,2.40
2023-03-27T01:15:05.355Z,2.40
2023-03-27T01:17:47.630Z,2.30
2023-03-27T01:20:41.245Z,2.30
2023-03-27T01:23:59.784Z,2.30
2023-03-27T01:26:42.627Z,2.20
2023-03-27T01:29:09.688Z,2.10
2023-03-27T01:32:00.975Z,2.20
2023-03-27T01:34:47.956Z,2.10
2023-03-27T01:38:03.944Z,2.10
2023-03-27T01:40:43.748Z,2.00
2023-03-27T01:43:17.345Z,2.00
2023-03-27T01:46:20.592Z,1.90
2023-03-27T01:48:58.111Z,1.90
2023-03-27T01:51:35.736Z,1.90
2023-03-27T01:54:18.144Z,1.90
2023-03-27T01:56:53.840Z,1.90
2023-03-27T01:59:27.691Z,1.80
2023-03-27T02:02:11.875Z,1.80
2023-03-27T02:04:49.062Z,1.80
2023-03-27T02:07:21.974Z,1.80
2023-03-27T02:09:55.551Z,1.80
2023-03-27T02:12:37.916Z,1.70
2023-03-27T02:15:23.100Z,1.70
2023-03-27T02:18:05.867Z,1.70
2023-03-27T02:20:34.925Z,1.70
2023-03-27T02:23:02.087Z,1.70
2023-03-27T02:25:34.285Z,1.70
2023-03-27T02:28:10.698Z,1.70
2023-03-27T02:31:05.434Z,1.70
2023-03-27T02:34:26.618Z,1.70
2023-03-27T02:36:57.101Z,1.80
2023-03-27T02:40:20.656Z,1.80
2023-03-27T02:43:12.924Z,1.80
2023-03-27T02:46:05.619Z,1.90
2023-03-27T02:48:43.220Z,1.80
2023-03-27T02:51:17.486Z,1.90
2023-03-27T02:54:03.252Z,1.80
2023-03-27T02:56:38.551Z,1.90
2023-03-27T02:59:13.139Z,2.00
2023-03-27T03:01:44.951Z,2.10
2023-03-27T03:04:41.685Z,2.20
2023-03-27T03:07:16.126Z,2.30
2023-03-27T03:09:44.683Z,2.40
2023-03-27T03:12:12.300Z,2.50
2023-03-27T03:14:46.661Z,2.60
2023-03-27T03:17:16.010Z,2.60
2023-03-27T03:19:43.524Z,2.70
2023-03-27T03:22:10.801Z,2.70
2023-03-27T03:24:42.392Z,2.80
2023-03-27T03:27:14.286Z,2.80
2023-03-27T03:29:50.743Z,2.90
2023-03-27T03:32:26.523Z,2.90
2023-03-27T03:34:54.034Z,3.00
2023-03-27T03:37:21.400Z,3.00
2023-03-27T03:39:49.041Z,3.00
2023-03-27T03:42:22.866Z,3.10
2023-03-27T03:44:53.151Z,3.10
2023-03-27T03:47:22.262Z,3.10
2023-03-27T03:49:50.384Z,3.10
2023-03-27T03:52:17.977Z,3.10
2023-03-27T03:54:46.703Z,3.10
2023-03-27T03:59:41.627Z,3.10
2023-03-27T04:02:28.664Z,3.10
2023-03-27T04:05:09.366Z,3.00
2023-03-27T04:07:40.093Z,3.00
2023-03-27T04:10:30.554Z,3.00
2023-03-27T04:12:59.722Z,2.90
2023-03-27T04:15:30.285Z,2.90
2023-03-27T04:18:00.447Z,2.90
2023-03-27T04:20:28.739Z,2.80
2023-03-27T04:23:02.290Z,2.80
2023-03-27T04:25:30.916Z,2.70
2023-03-27T04:27:58.831Z,2.70
2023-03-27T04:30:33.619Z,2.70
2023-03-27T04:33:19.373Z,2.70
2023-03-27T04:36:06.385Z,2.70
2023-03-27T04:39:02.387Z,2.70
2023-03-27T04:41:32.666Z,2.70
2023-03-27T04:44:00.270Z,2.60
2023-03-27T04:46:29.350Z,2.50
2023-03-27T04:49:01.927Z,2.50
2023-03-27T04:51:42.716Z,2.40
2023-03-27T04:54:11.857Z,2.40
2023-03-27T04:56:45.453Z,2.40
2023-03-27T04:59:13.485Z,2.50
2023-03-27T05:01:41.374Z,2.60
2023-03-27T05:04:26.331Z,2.70
2023-03-27T05:07:23.017Z,2.90
2023-03-27T05:09:50.679Z,3.00
2023-03-27T05:12:18.098Z,3.10
2023-03-27T05:14:51.924Z,3.20
2023-03-27T05:17:34.308Z,3.30
2023-03-27T05:20:01.925Z,3.40
2023-03-27T05:22:34.762Z,3.50
2023-03-27T05:25:10.634Z,3.50
2023-03-27T05:27:40.139Z,3.60
2023-03-27T05:30:07.919Z,3.60
2023-03-27T05:32:35.704Z,3.70
2023-03-27T05:35:12.516Z,3.70
2023-03-27T05:37:48.811Z,3.70
2023-03-27T05:40:29.655Z,3.70
2023-03-27T05:42:57.889Z,3.90
2023-03-27T05:45:29.391Z,4.00
2023-03-27T05:47:58.899Z,4.20
2023-03-27T05:50:33.270Z,4.20
2023-03-27T05:53:03.981Z,4.30
2023-03-27T05:55:36.218Z,4.40
2023-03-27T05:58:06.548Z,4.40
2023-03-27T06:00:34.360Z,4.50
2023-03-27T06:03:04.096Z,4.60
2023-03-27T06:05:52.761Z,4.70
2023-03-27T06:08:20.784Z,5.00
2023-03-27T06:10:48.561Z,4.90
2023-03-27T06:13:24.184Z,5.10
2023-03-27T06:16:05.695Z,5.30
2023-03-27T06:18:56.420Z,5.40
2023-03-27T06:21:25.419Z,5.70
2023-03-27T06:23:58.964Z,5.90
2023-03-27T06:26:28.376Z,6.20
2023-03-27T06:28:58.362Z,6.30
2023-03-27T06:31:29.107Z,6.40
2023-03-27T06:34:15.111Z,6.50
2023-03-27T06:37:05.270Z,6.60
2023-03-27T06:39:39.630Z,6.60
2023-03-27T06:42:06.898Z,6.70
2023-03-27T06:44:39.227Z,6.70
2023-03-27T06:47:18.927Z,6.70
2023-03-27T06:49:58.575Z,6.60
2023-03-27T06:52:25.670Z,6.50
2023-03-27T06:54:57.528Z,6.40
2023-03-27T06:57:24.588Z,6.30
2023-03-27T07:00:02.157Z,6.20
2023-03-27T07:02:54.343Z,6.20
2023-03-27T07:05:42.768Z,6.20
2023-03-27T07:08:22.580Z,6.20
2023-03-27T07:11:08.061Z,6.10
2023-03-27T07:13:43.462Z,6.10
2023-03-27T07:16:20.671Z,6.10
2023-03-27T07:18:48.210Z,6.20
2023-03-27T07:21:15.900Z,6.30
2023-03-27T07:23:43.699Z,6.30
2023-03-27T07:26:13.924Z,6.30
2023-03-27T07:29:00.979Z,6.40
2023-03-27T07:31:42.453Z,6.30
2023-03-27T07:34:16.813Z,6.30
2023-03-27T07:37:07.223Z,6.30
2023-03-27T07:39:36.365Z,6.20
2023-03-27T07:42:04.009Z,6.20
2023-03-27T07:44:42.631Z,6.20
2023-03-27T07:47:10.726Z,6.20
2023-03-27T07:49:39.708Z,6.40
2023-03-27T07:52:09.235Z,6.40
2023-03-27T07:54:45.771Z,6.50
2023-03-27T07:57:16.650Z,6.50
2023-03-27T07:59:59.913Z,6.50
2023-03-27T08:02:52.988Z,6.80
2023-03-27T08:05:20.207Z,7.10
2023-03-27T08:07:59.604Z,7.30
2023-03-27T08:10:42.519Z,7.50
2023-03-27T08:13:12.678Z,7.70
2023-03-27T08:15:39.808Z,7.80
2023-03-27T08:18:19.555Z,7.70
2023-03-27T08:20:48.178Z,7.80
2023-03-27T08:23:17.031Z,7.90
2023-03-27T08:26:13.968Z,7.90
2023-03-27T08:28:54.148Z,8.00
2023-03-27T08:31:25.754Z,8.10
2023-03-27T08:33:58.529Z,8.00
2023-03-27T08:36:29.014Z,8.00
2023-03-27T08:38:57.205Z,8.00
2023-03-27T08:42:04.345Z,8.10
2023-03-27T08:44:40.014Z,8.10
2023-03-27T08:47:36.397Z,8.00
2023-03-27T08:50:32.276Z,7.90
2023-03-27T08:53:49.687Z,7.80
2023-03-27T08:56:25.391Z,8.00
2023-03-27T08:58:54.302Z,8.30
2023-03-27T09:01:49.961Z,8.20
2023-03-27T09:04:32.517Z,8.10
2023-03-27T09:07:15.134Z,8.00
2023-03-27T09:10:43.516Z,8.00
2023-03-27T09:13:39.079Z,7.80
2023-03-27T09:16:48.752Z,8.40
2023-03-27T09:19:27.182Z,7.80
2023-03-27T09:22:04.045Z,8.10
2023-03-27T09:25:01.017Z,8.30
2023-03-27T09:27:34.334Z,8.30
2023-03-27T09:30:26.323Z,8.10
2023-03-27T09:33:04.866Z,7.80
2023-03-27T09:35:35.486Z,8.10
2023-03-27T09:38:17.979Z,8.30
2023-03-27T09:40:52.917Z,8.40
2023-03-27T09:43:27.530Z,8.70
2023-03-27T09:46:00.708Z,9.10
2023-03-27T09:48:38.311Z,9.30
2023-03-27T09:51:47.707Z,9.20
2023-03-27T09:54:56.520Z,8.50
2023-03-27T09:57:39.264Z,7.80
2023-03-27T10:00:27.691Z,7.40
2023-03-27T10:03:06.762Z,7.10
2023-03-27T10:05:38.906Z,7.00
2023-03-27T10:08:42.161Z,7.30
2023-03-27T10:11:20.547Z,7.90
2023-03-27T10:14:17.603Z,8.30
2023-03-27T10:16:47.804Z,8.60
2023-03-27T10:19:29.353Z,8.40
2023-03-27T10:22:16.064Z,8.00
2023-03-27T10:24:47.973Z,7.90
2023-03-27T10:27:27.566Z,7.90
2023-03-27T10:30:34.502Z,7.90
2023-03-27T10:33:37.568Z,8.30
2023-03-27T10:36:16.042Z,8.30
2023-03-27T10:38:48.940Z,8.40
2023-03-27T10:41:29.299Z,8.50
2023-03-27T10:44:00.825Z,8.50
2023-03-27T10:46:30.536Z,8.50
2023-03-27T10:49:51.653Z,8.00
2023-03-27T10:52:49.792Z,7.50
2023-03-27T10:55:41.406Z,7.20
2023-03-27T10:58:26.572Z,7.10
2023-03-27T11:01:05.794Z,6.80
2023-03-27T11:04:08.495Z,6.60
2023-03-27T11:06:48.063Z,6.40
2023-03-27T11:09:37.545Z,6.20
2023-03-27T11:12:12.106Z,6.20
2023-03-27T11:15:11.639Z,6.10
2023-03-27T11:17:53.272Z,6.00
2023-03-27T11:20:37.177Z,6.10
2023-03-27T11:23:24.629Z,6.40
2023-03-27T11:26:15.794Z,6.70
2023-03-27T11:29:09.300Z,6.80
2023-03-27T11:31:49.407Z,6.70
2023-03-27T11:34:48.389Z,6.50
2023-03-27T11:37:46.547Z,6.40
2023-03-27T11:40:31.009Z,6.30
2023-03-27T11:43:04.253Z,6.40
2023-03-27T11:46:09.540Z,6.50
2023-03-27T11:49:02.404Z,6.30
2023-03-27T11:51:29.558Z,6.10
2023-03-27T11:54:10.516Z,6.20
2023-03-27T11:56:51.019Z,6.10
2023-03-27T12:00:04.590Z,6.40
2023-03-27T12:03:28.730Z,6.40
2023-03-27T12:06:14.896Z,6.10
2023-03-27T12:08:52.072Z,5.90
2023-03-27T12:11:21.538Z,5.70
2023-03-27T12:14:40.174Z,5.70
2023-03-27T12:17:37.391Z,5.60
2023-03-27T12:20:21.913Z,5.40
2023-03-27T12:23:07.950Z,5.20
2023-03-27T12:25:51.478Z,5.30
2023-03-27T12:29:29.989Z,5.30
2023-03-27T12:32:38.130Z,5.00
2023-03-27T12:35:14.850Z,4.90
2023-03-27T12:38:02.089Z,5.10
2023-03-27T12:40:40.545Z,5.20
2023-03-27T12:43:39.490Z,5.10
2023-03-27T12:46:23.505Z,5.20
2023-03-27T12:49:10.775Z,5.10
2023-03-27T12:51:54.235Z,5.00
2023-03-27T12:54:40.300Z,5.00
2023-03-27T12:57:44.706Z,5.10
2023-03-27T13:00:21.510Z,5.30
2023-03-27T13:03:11.843Z,5.40
2023-03-27T13:06:03.799Z,5.50
2023-03-27T13:09:03.093Z,5.40
2023-03-27T13:11:50.251Z,5.50
2023-03-27T13:14:20.465Z,5.80
2023-03-27T13:17:12.674Z,6.10
2023-03-27T13:20:08.930Z,6.20
2023-03-27T13:22:46.232Z,6.00
2023-03-27T13:25:44.281Z,6.10
2023-03-27T13:28:32.400Z,5.90
2023-03-27T13:31:11.732Z,5.50
2023-03-27T13:33:47.497Z,5.30
2023-03-27T13:36:30.171Z,5.30
2023-03-27T13:38:57.285Z,5.20
2023-03-27T13:41:43.638Z,5.10
2023-03-27T13:44:55.851Z,5.10
2023-03-27T13:47:33.572Z,4.90
2023-03-27T13:50:18.886Z,4.80
2023-03-27T13:53:37.703Z,4.80
2023-03-27T13:56:41.601Z,4.80
2023-03-27T13:59:43.145Z,4.90
2023-03-27T14:02:39.256Z,5.00
2023-03-27T14:05:36.036Z,5.00
2023-03-27T14:08:21.936Z,4.90
2023-03-27T14:11:24.820Z,5.10
2023-03-27T14:14:28.531Z,5.00
2023-03-27T14:17:06.046Z,5.00
2023-03-27T14:19:42.361Z,5.00
2023-03-27T14:22:40.381Z,5.20
2023-03-27T14:25:15.712Z,5.00
2023-03-27T14:27:54.535Z,4.70
2023-03-27T14:30:28.885Z,4.50
2023-03-27T14:33:19.996Z,4.40
2023-03-27T14:36:05.556Z,4.20
2023-03-27T14:38:37.336Z,4.20
2023-03-27T14:41:24.344Z,4.00
2023-03-27T14:44:03.393Z,3.90
2023-03-27T14:46:33.974Z,3.70
2023-03-27T14:49:24.545Z,3.60
2023-03-27T14:52:03.966Z,3.50
2023-03-27T14:54:55.574Z,3.50
2023-03-27T14:57:28.025Z,3.70
2023-03-27T14:59:59.327Z,3.90
2023-03-27T15:02:31.793Z,3.90
2023-03-27T15:05:17.206Z,3.80
2023-03-27T15:07:49.168Z,3.80
2023-03-27T15:10:37.341Z,3.90
2023-03-27T15:13:10.375Z,4.00
2023-03-27T15:15:44.267Z,4.10
2023-03-27T15:18:25.388Z,4.00
2023-03-27T15:20:54.087Z,3.90
2023-03-27T15:23:31.247Z,3.90
2023-03-27T15:26:14.901Z,3.80
2023-03-27T15:29:28.565Z,3.90
2023-03-27T15:31:57.419Z,4.00
2023-03-27T15:34:36.410Z,4.10
2023-03-27T15:37:13.055Z,4.10
2023-03-27T15:40:00.481Z,4.20
2023-03-27T15:42:55.916Z,4.30
2023-03-27T15:45:36.897Z,4.20
2023-03-27T15:48:21.859Z,4.00
2023-03-27T15:51:03.923Z,3.80
2023-03-27T15:53:43.032Z,3.60
2023-03-27T15:56:12.853Z,3.60
2023-03-27T15:58:43.938Z,3.40
2023-03-27T16:01:18.742Z,3.50
2023-03-27T16:03:50.497Z,3.50
2023-03-27T16:06:33.900Z,3.60
2023-03-27T16:09:04.485Z,3.60
2023-03-27T16:11:46.786Z,3.50
2023-03-27T16:14:19.889Z,3.50
2023-03-27T16:16:47.114Z,3.40
2023-03-27T16:19:16.423Z,3.10
2023-03-27T16:22:03.709Z,2.90
2023-03-27T16:24:30.996Z,2.70
2023-03-27T16:26:58.076Z,2.60
2023-03-27T16:29:25.457Z,2.50
2023-03-27T16:31:52.512Z,2.30
2023-03-27T16:34:23.622Z,2.30
2023-03-27T16:36:50.975Z,2.20
2023-03-27T16:39:18.392Z,2.10
2023-03-27T16:41:45.883Z,2.00
2023-03-27T16:44:13.415Z,1.90
2023-03-27T16:46:41.028Z,1.80
2023-03-27T16:49:12.199Z,1.80
2023-03-27T16:51:39.301Z,1.70
2023-03-27T16:54:07.182Z,1.60
2023-03-27T16:56:35.183Z,1.60
2023-03-27T16:59:04.081Z,1.60
2023-03-27T17:01:31.290Z,1.50
2023-03-27T17:03:58.940Z,1.50
2023-03-27T17:06:26.088Z,1.40
2023-03-27T17:08:55.644Z,1.40
2023-03-27T17:11:23.720Z,1.30
2023-03-27T17:13:51.526Z,1.30
2023-03-27T17:16:19.167Z,1.30
2023-03-27T17:18:46.637Z,1.20
2023-03-27T17:21:13.810Z,1.10
2023-03-27T17:23:43.525Z,1.10
2023-03-27T17:26:15.461Z,1.00
2023-03-27T17:28:49.916Z,1.00
2023-03-27T17:31:17.256Z,0.90
2023-03-27T17:33:47.003Z,0.90
2023-03-27T17:36:21.629Z,0.90
2023-03-27T17:38:54.346Z,0.80
2023-03-27T17:41:21.695Z,0.80
2023-03-27T17:43:50.186Z,0.80
2023-03-27T17:46:17.392Z,0.70
2023-03-27T17:48:44.913Z,0.70
2023-03-27T17:51:12.066Z,0.60
2023-03-27T17:53:40.008Z,0.60
2023-03-27T17:56:07.811Z,0.60
2023-03-27T17:58:37.124Z,0.60
2023-03-27T18:01:16.677Z,0.50
2023-03-27T18:03:45.273Z,0.50
2023-03-27T18:06:13.761Z,0.40
2023-03-27T18:08:41.091Z,0.40
2023-03-27T18:11:12.978Z,0.40
2023-03-27T18:13:41.630Z,0.40
2023-03-27T18:16:10.742Z,0.30
2023-03-27T18:18:39.333Z,0.30
2023-03-27T18:21:08.855Z,0.30
2023-03-27T18:23:38.401Z,0.30
2023-03-27T18:26:13.548Z,0.20
2023-03-27T18:28:41.191Z,0.20
2023-03-27T18:31:10.586Z,0.20
2023-03-27T18:33:38.528Z,0.20
2023-03-27T18:36:11.972Z,0.10
2023-03-27T18:38:41.034Z,0.10
2023-03-27T18:41:08.706Z,0.10
2023-03-27T18:43:39.400Z,0.10
2023-03-27T18:46:07.475Z,0.10
2023-03-27T18:48:35.945Z,0.00
2023-03-27T18:51:05.704Z,0.00
2023-03-27T18:53:33.870Z,0.00
2023-03-27T18:56:02.033Z,-0.10
2023-03-27T18:58:32.003Z,-0.10
2023-03-27T19:01:00.234Z,-0.10
2023-03-27T19:03:34.923Z,-0.10
2023-03-27T19:06:04.743Z,-0.10
2023-03-27T19:08:32.647Z,-0.20
2023-03-27T19:11:00.273Z,-0.20
2023-03-27T19:13:46.728Z,-0.20
2023-03-27T19:16:35.043Z,-0.20
2023-03-27T19:19:25.460Z,-0.30
2023-03-27T19:21:53.209Z,-0.30
2023-03-27T19:24:41.824Z,-0.30
2023-03-27T19:27:24.011Z,-0.40
2023-03-27T19:29:53.455Z,-0.40
2023-03-27T19:32:21.857Z,-0.40
2023-03-27T19:34:49.501Z,-0.40
2023-03-27T19:37:19.661Z,-0.40
2023-03-27T19:39:51.279Z,-0.50
2023-03-27T19:42:18.784Z,-0.50
2023-03-27T19:44:46.436Z,-0.50
2023-03-27T19:47:13.526Z,-0.50
2023-03-27T19:49:46.140Z,-0.50
2023-03-27T19:53:05.381Z,-0.60
2023-03-27T19:55:36.162Z,-0.60
2023-03-27T19:58:04.279Z,-0.60
2023-03-27T20:00:35.107Z,-0.60
2023-03-27T20:03:06.333Z,-0.70
2023-03-27T20:05:33.849Z,-0.70
2023-03-27T20:08:02.215Z,-0.70
2023-03-27T20:10:33.141Z,-0.70
2023-03-27T20:13:02.065Z,-0.70
2023-03-27T20:15:29.886Z,-0.70
2023-03-27T20:17:57.027Z,-0.80
2023-03-27T20:20:24.328Z,-0.80
2023-03-27T20:22:57.530Z,-0.80
2023-03-27T20:25:25.400Z,-0.80
2023-03-27T20:27:52.493Z,-0.80
2023-03-27T20:30:19.918Z,-0.90
2023-03-27T20:32:49.600Z,-0.90
2023-03-27T20:35:24.817Z,-0.90
2023-03-27T20:37:56.467Z,-0.90
2023-03-27T20:40:27.964Z,-1.00
2023-03-27T20:43:03.054Z,-1.00
2023-03-27T20:45:31.321Z,-1.00
2023-03-27T20:48:03.823Z,-1.10
2023-03-27T20:50:35.685Z,-1.10
2023-03-27T20:53:04.444Z,-1.10
2023-03-27T20:55:34.611Z,-1.10
2023-03-27T20:58:06.719Z,-1.20
2023-03-27T21:00:34.845Z,-1.20
2023-03-27T21:03:02.107Z,-1.20
2023-03-27T21:05:30.305Z,-1.20
2023-03-27T21:07:58.503Z,-1.20
2023-03-27T21:10:25.923Z,-1.20
2023-03-27T21:12:54.159Z,-1.30
2023-03-27T21:15:21.774Z,-1.30
2023-03-27T21:17:48.863Z,-1.30
2023-03-27T21:20:19.308Z,-1.30
2023-03-27T21:22:48.550Z,-1.40
2023-03-27T21:25:16.009Z,-1.40
2023-03-27T21:27:43.084Z,-1.40
2023-03-27T21:30:11.105Z,-1.50
2023-03-27T21:32:38.218Z,-1.40
2023-03-27T21:35:06.202Z,-1.50
2023-03-27T21:37:33.267Z,-1.50
2023-03-27T21:40:00.539Z,-1.50
2023-03-27T21:42:27.590Z,-1.50
2023-03-27T21:44:57.058Z,-1.50
2023-03-27T21:47:31.637Z,-1.50
2023-03-27T21:50:06.053Z,-1.50
2023-03-27T21:52:35.782Z,-1.50
2023-03-27T21:55:03.744Z,-1.50
2023-03-27T21:57:30.989Z,-1.50
2023-03-27T21:59:58.304Z,-1.60
2023-03-27T22:02:28.281Z,-1.60
2023-03-27T22:05:04.399Z,-1.60
2023-03-27T22:07:31.888Z,-1.60
2023-03-27T22:09:59.179Z,-1.60
2023-03-27T22:12:26.318Z,-1.70
2023-03-27T22:14:53.590Z,-1.70
2023-03-27T22:17:20.787Z,-1.70
2023-03-27T22:19:52.475Z,-1.70
2023-03-27T22:22:19.616Z,-1.70
2023-03-27T22:24:46.956Z,-1.70
2023-03-27T22:27:14.061Z,-1.70
2023-03-27T22:29:41.457Z,-1.80
2023-03-27T22:32:08.636Z,-1.80
2023-03-27T22:34:38.065Z,-1.80
2023-03-27T22:37:06.566Z,-1.80
2023-03-27T22:39:34.240Z,-1.80
2023-03-27T22:42:01.512Z,-1.90
2023-03-27T22:44:31.068Z,-1.80
2023-03-27T22:46:59.745Z,-1.90
2023-03-27T22:49:28.646Z,-1.90
2023-03-27T22:51:55.837Z,-1.90
2023-03-27T22:54:23.185Z,-1.90
2023-03-27T22:56:50.654Z,-1.90
2023-03-27T22:59:18.035Z,-2.00
2023-03-27T23:01:45.113Z,-1.90
2023-03-27T23:04:12.406Z,-2.00
2023-03-27T23:06:39.582Z,-2.00
2023-03-27T23:09:08.456Z,-2.00
2023-03-27T23:11:35.760Z,-2.00
2023-03-27T23:14:03.211Z,-2.00
2023-03-27T23:16:30.286Z,-2.00
2023-03-27T23:18:57.716Z,-2.10
2023-03-27T23:21:24.695Z,-2.10
2023-03-27T23:23:52.189Z,-2.10
2023-03-27T23:26:19.498Z,-2.00
2023-03-27T23:28:49.244Z,-2.00
2023-03-27T23:31:20.169Z,-2.00
2023-03-27T23:33:50.649Z,-1.90
2023-03-27T23:36:24.936Z,-2.00
2023-03-27T23:38:53.546Z,-2.00
2023-03-27T23:41:21.024Z,-2.00
2023-03-27T23:43:49.206Z,-1.90
2023-03-27T23:46:16.845Z,-2.00
2023-03-27T23:48:44.885Z,-2.00
2023-03-27T23:51:16.262Z,-2.00
2023-03-27T23:53:44.106Z,-2.00
2023-03-27T23:56:14.173Z,-2.10
2023-03-27T23:58:41.554Z,-2.10
